Strona główna
METAR-TAF:

METAR-TAF

Lotnisko :

Port lotniczy Święta Katarzyna

Świętej Katarzyny, Egipt

Szerokość geograficzna: 28-41-07N, Długość geograficzna: 034-03-45E, wysokość: 1331 m

Aktualna obserwacja pogody

Raport powstał 26 minut temu, godzina 23:00 UTC
Wiatr 2 kt od północ
Temperatura 20°C
Wilgotność 68%
Ciśnienie 1019 hPa
Widzialność 10 km lub więcej
Brak chmur poniżej 1500 m i brak chmur cumulonimbus

METAR: HESC 082300Z 35002KT CAVOK 20/14 Q1019 NOSIG

czas: 01:26 (23:26 UTC)

Prognoza

Raport powstał 6 godziny i 26 minut temu, godzina 17:00 UTC
Prognoza ważna od 08 godzina 18 UTC do 09 godzina 24 UTC
Wiatr 10 kt od północny zachód
Widzialność 10 km lub więcej
Brak chmur poniżej 1500 m i brak chmur cumulonimbus

TAF: HESC 081700Z 0818/0924 32010KT CAVOK

Obserwacja i prognoza pogody dla ponad 4000 lotnisk (raport METAR i TAF).

Dostępne stacje oznaczono żółtymi i czerwonymi punktami na mapie.

Najedź kursorem aby zobaczyć nazwę stacji.

Kliknij aby zobaczyć obserwacje i prognozy pogody.

Aby zmienić mapę: kliknij na zielony przycisk z czarnym krzyżykiem, aby powiększyć; na zielony przycisk z myślnikiem, aby pomniejszyć; na zielone strzałki, aby przejść do map sąsiednich.


METAR-TAF: